»·PEaware :: SWA1378 KLAS-KBUR

SWA1378 :: KLAS-KBUR

FLIGHT INFORMATION

Flight Status: Arrived
Operator:
Southwest Airlines
More flights by this operator :: More flights under this callsign
Pilot: Dave P. (45)
Aircraft: BOEING 737-700
(B737)
More flights by this aircraft type
Origin: KLAS Harry Reid Intl
United States
Destination: KBUR Bob Hope-Burbank
United States
More flights between these airports :: More routes between these airports
Route: RADYR2 SLVRR KREME JANNY5
File this flight plan on PilotEdge
Remarks:
Altitude:
(Current/Filed)
22,000ft
Speed:
(Current/Filed)
423kts
Departed: 25-Sep-22 08:00 AM
Arrived: 25-Sep-22 08:45 AM
Distance/Time
Traveled:
193nm/0:45
Distance/Time
To Go:
Arrived

Flight Plot

Page will automatically refresh every two minutes.

Flight plan parsing failed; only flown route is shown


Map Options




Map Legend


Flown Route
Filed Route
Departure Airport
Arrival Airport
Navaid (VOR, NDB)
Fix

Horizontal Profiles

Position Reports

Time Latitude Longitude Heading Altitude Ground
Speed
25-Sep-22 07:45 36.079578 -115.146692 27 2186ft 0kts
25-Sep-22 07:46 36.079578 -115.146692 27 2186ft 0kts
25-Sep-22 07:47 36.079578 -115.146692 27 2186ft 0kts
25-Sep-22 07:48 36.079578 -115.146692 27 2186ft 0kts
25-Sep-22 07:49 36.079466 -115.146763 27 2186ft 2kts
25-Sep-22 07:50 36.079167 -115.147383 101 2190ft 2kts
25-Sep-22 07:51 36.079186 -115.147443 129 2190ft 0kts
25-Sep-22 07:52 36.079185 -115.147442 129 2190ft 0kts
25-Sep-22 07:53 36.078274 -115.142443 89 2186ft 23kts
25-Sep-22 07:54 36.078274 -115.134957 90 2191ft 20kts
25-Sep-22 07:55 36.078281 -115.127027 89 2186ft 22kts
25-Sep-22 07:56 36.077525 -115.121515 125 2187ft 9kts
25-Sep-22 07:57 36.077380 -115.121333 150 2187ft 0kts
25-Sep-22 07:58 36.076451 -115.121444 248 2189ft 8kts
25-Sep-22 07:59 36.076382 -115.146671 268 2308ft 178kts
25-Sep-22 08:00 36.076122 -115.212149 261 4735ft 229kts
25-Sep-22 08:01 36.034121 -115.276078 198 7273ft 277kts
25-Sep-22 08:02 35.954915 -115.304369 191 9662ft 296kts
25-Sep-22 08:03 35.868135 -115.324574 192 12089ft 347kts
25-Sep-22 08:04 35.770504 -115.348396 192 15066ft 367kts
25-Sep-22 08:05 35.667803 -115.373525 192 17837ft 386kts
25-Sep-22 08:06 35.574747 -115.431903 229 20286ft 394kts
25-Sep-22 08:07 35.499762 -115.535368 229 22154ft 410kts
25-Sep-22 08:08 35.422418 -115.639676 228 22149ft 413kts
25-Sep-22 08:09 35.344984 -115.743582 227 22127ft 412kts
25-Sep-22 08:10 35.260403 -115.838942 223 22112ft 413kts
25-Sep-22 08:11 35.175547 -115.933031 223 22088ft 413kts
25-Sep-22 08:12 35.090588 -116.027687 223 22078ft 413kts
25-Sep-22 08:13 35.005014 -116.122730 223 22074ft 417kts
25-Sep-22 08:14 34.920112 -116.218827 233 22056ft 416kts
25-Sep-22 08:15 34.869546 -116.344869 246 22070ft 415kts
25-Sep-22 08:16 34.820712 -116.471270 245 22095ft 414kts
25-Sep-22 08:17 34.782408 -116.601255 265 22136ft 403kts
25-Sep-22 08:18 34.770315 -116.734045 263 21960ft 394kts
25-Sep-22 08:19 34.757483 -116.864725 263 21037ft 385kts
25-Sep-22 08:20 34.744507 -116.992809 263 20137ft 380kts
25-Sep-22 08:21 34.731618 -117.119589 263 19291ft 375kts
25-Sep-22 08:22 34.718726 -117.244801 263 18484ft 371kts
25-Sep-22 08:23 34.705958 -117.367565 262 17565ft 362kts
25-Sep-22 08:24 34.693389 -117.487111 262 16588ft 354kts
25-Sep-22 08:25 34.680797 -117.605453 262 15737ft 350kts
25-Sep-22 08:26 34.668425 -117.721734 262 14887ft 344kts
25-Sep-22 08:27 34.656276 -117.835974 262 14140ft 338kts
25-Sep-22 08:28 34.643995 -117.948802 262 12990ft 337kts
25-Sep-22 08:29 34.631741 -118.060476 261 11672ft 331kts
25-Sep-22 08:30 34.608655 -118.167220 253 10384ft 317kts
25-Sep-22 08:31 34.586939 -118.263657 254 9446ft 279kts
25-Sep-22 08:32 34.566608 -118.354532 253 8050ft 277kts
25-Sep-22 08:33 34.539225 -118.440165 216 7874ft 280kts
25-Sep-22 08:34 34.475390 -118.490844 211 7229ft 262kts
25-Sep-22 08:35 34.414519 -118.537973 211 6134ft 257kts
25-Sep-22 08:36 34.356374 -118.583065 211 5940ft 234kts
25-Sep-22 08:37 34.303353 -118.623382 196 5922ft 214kts
25-Sep-22 08:38 34.251036 -118.602347 151 5015ft 193kts
25-Sep-22 08:39 34.205643 -118.570638 120 4077ft 185kts
25-Sep-22 08:40 34.199744 -118.514164 90 3024ft 159kts
25-Sep-22 08:42 34.199052 -118.460742 91 2234ft 159kts
25-Sep-22 08:43 34.198396 -118.408595 91 1440ft 146kts
25-Sep-22 08:44 34.197815 -118.361314 90 704ft 118kts
25-Sep-22 08:45 34.197135 -118.350832 259 694ft 6kts
25-Sep-22 08:46 34.197039 -118.352846 190 686ft 4kts
25-Sep-22 08:47 34.196765 -118.352855 179 687ft 0kts
25-Sep-22 08:48 34.196765 -118.352855 179 687ft 0kts
25-Sep-22 08:49 34.196765 -118.352855 179 687ft 0kts
25-Sep-22 08:50 34.196765 -118.352855 179 687ft 0kts
25-Sep-22 08:51 34.196765 -118.352855 179 687ft 0kts
25-Sep-22 08:52 34.196765 -118.352855 179 687ft 0kts
25-Sep-22 08:53 34.196765 -118.352855 179 687ft 0kts
25-Sep-22 08:54 34.196765 -118.352855 179 687ft 0kts
25-Sep-22 08:55 34.196765 -118.352855 179 687ft 0kts

Navigation Log

Ident Type
Flight plan parsing failed, navigation log unavailable